createdAt,value
2018-12-05T00:02:28.053Z,18.27
2018-12-05T00:04:56.223Z,18.37
2018-12-05T00:07:24.618Z,17.67
2018-12-05T00:09:52.809Z,18.33
2018-12-05T00:12:21.004Z,19.17
2018-12-05T00:14:49.256Z,21.50
2018-12-05T00:17:17.436Z,19.80
2018-12-05T00:19:45.655Z,22.37
2018-12-05T00:22:13.851Z,20.10
2018-12-05T00:24:42.149Z,21.83
2018-12-05T00:27:10.521Z,21.73
2018-12-05T00:29:38.759Z,20.53
2018-12-05T00:32:06.988Z,17.87
2018-12-05T00:34:35.201Z,19.03
2018-12-05T00:37:03.404Z,20.37
2018-12-05T00:39:31.607Z,19.57
2018-12-05T00:41:59.795Z,20.13
2018-12-05T00:44:28.013Z,20.97
2018-12-05T00:46:56.209Z,17.77
2018-12-05T00:49:24.585Z,20.63
2018-12-05T00:51:52.771Z,19.33
2018-12-05T00:54:20.979Z,18.67
2018-12-05T00:56:49.189Z,17.43
2018-12-05T00:59:17.390Z,16.50
2018-12-05T01:01:46.571Z,18.47
2018-12-05T01:04:14.784Z,17.43
2018-12-05T01:06:43.005Z,17.13
2018-12-05T01:09:11.977Z,17.70
2018-12-05T01:11:40.215Z,18.03
2018-12-05T01:14:08.469Z,18.50
2018-12-05T01:16:36.663Z,17.53
2018-12-05T01:19:05.167Z,20.40
2018-12-05T01:21:33.357Z,17.97
2018-12-05T01:24:01.549Z,18.10
2018-12-05T01:26:29.757Z,20.07
2018-12-05T01:28:57.951Z,18.27
2018-12-05T01:31:26.149Z,18.83
2018-12-05T01:33:54.339Z,19.33
2018-12-05T01:36:22.565Z,17.47
2018-12-05T01:38:50.763Z,18.33
2018-12-05T01:41:18.995Z,18.93
2018-12-05T01:43:47.177Z,20.33
2018-12-05T01:46:15.392Z,20.07
2018-12-05T01:48:44.738Z,18.83
2018-12-05T01:51:12.937Z,19.37
2018-12-05T01:53:41.122Z,20.30
2018-12-05T01:56:09.318Z,22.30
2018-12-05T01:58:37.509Z,21.67
2018-12-05T02:01:05.689Z,23.10
2018-12-05T02:03:33.885Z,20.20
2018-12-05T02:06:02.263Z,21.27
2018-12-05T02:08:30.529Z,20.27
2018-12-05T02:10:59.067Z,20.83
2018-12-05T02:13:27.250Z,18.73
2018-12-05T02:15:55.433Z,20.30
2018-12-05T02:18:23.653Z,21.23
2018-12-05T02:20:51.929Z,20.10
2018-12-05T02:23:20.193Z,21.10
2018-12-05T02:25:48.397Z,20.87
2018-12-05T02:28:16.645Z,20.17
2018-12-05T02:30:44.913Z,19.97
2018-12-05T02:33:13.097Z,21.87
2018-12-05T02:35:41.305Z,24.33
2018-12-05T02:38:09.535Z,20.77
2018-12-05T02:40:37.829Z,21.63
2018-12-05T02:43:06.083Z,20.57
2018-12-05T02:45:36.230Z,21.03
2018-12-05T02:48:04.469Z,20.20
2018-12-05T02:50:32.669Z,23.27
2018-12-05T02:53:00.857Z,20.17
2018-12-05T02:55:29.061Z,23.20
2018-12-05T02:57:57.284Z,21.13
2018-12-05T03:00:25.651Z,19.50
2018-12-05T03:02:53.941Z,19.83
2018-12-05T03:05:22.109Z,19.73
2018-12-05T03:07:50.337Z,20.20
2018-12-05T03:10:18.543Z,20.93
2018-12-05T03:12:46.853Z,19.40
2018-12-05T03:15:15.057Z,19.13
2018-12-05T03:17:43.905Z,20.47
2018-12-05T03:20:12.190Z,19.93
2018-12-05T03:22:40.357Z,18.53
2018-12-05T03:25:08.590Z,20.63
2018-12-05T03:27:36.785Z,17.50
2018-12-05T03:30:05.445Z,18.53
2018-12-05T03:32:33.721Z,19.13
2018-12-05T03:35:01.944Z,18.10
2018-12-05T03:37:30.114Z,18.53
2018-12-05T03:39:58.318Z,18.13
2018-12-05T03:42:26.564Z,18.10
2018-12-05T03:44:54.840Z,17.50
2018-12-05T03:47:23.045Z,20.57
2018-12-05T03:49:53.916Z,21.27
2018-12-05T03:52:22.136Z,19.40
2018-12-05T03:54:50.368Z,17.60
2018-12-05T03:57:18.550Z,18.13
2018-12-05T03:59:46.757Z,18.97
2018-12-05T04:02:15.034Z,16.43
2018-12-05T04:04:43.221Z,16.27
2018-12-05T04:07:11.434Z,17.80
2018-12-05T04:09:39.745Z,16.27
2018-12-05T04:12:08.020Z,18.77
2018-12-05T04:14:36.244Z,20.83
2018-12-05T04:17:04.557Z,17.30
2018-12-05T04:19:32.813Z,15.73
2018-12-05T04:22:01.003Z,17.33
2018-12-05T04:24:29.189Z,16.53
2018-12-05T04:26:57.389Z,19.00
2018-12-05T04:29:25.618Z,19.97
2018-12-05T04:31:53.801Z,19.10
2018-12-05T04:34:21.989Z,17.73
2018-12-05T04:36:50.170Z,20.97
2018-12-05T04:39:18.433Z,18.63
2018-12-05T04:41:46.617Z,18.30
2018-12-05T04:44:14.881Z,16.87
2018-12-05T04:46:43.153Z,17.20
2018-12-05T04:49:11.345Z,19.77
2018-12-05T04:51:39.527Z,17.07
2018-12-05T04:54:07.709Z,17.07
2018-12-05T04:56:35.928Z,16.83
2018-12-05T04:59:04.285Z,15.97
2018-12-05T05:01:32.516Z,17.33
2018-12-05T05:04:00.768Z,18.73
2018-12-05T05:06:28.962Z,16.37
2018-12-05T05:08:57.341Z,17.00
2018-12-05T05:11:25.609Z,22.03
2018-12-05T05:13:53.904Z,20.30
2018-12-05T05:16:22.230Z,19.63
2018-12-05T05:18:50.468Z,18.67
2018-12-05T05:21:18.703Z,23.30
2018-12-05T05:23:46.885Z,19.47
2018-12-05T05:26:15.055Z,18.83
2018-12-05T05:28:43.325Z,20.90
2018-12-05T05:31:11.559Z,19.50
2018-12-05T05:33:39.741Z,15.93
2018-12-05T05:36:07.931Z,18.67
2018-12-05T05:38:36.232Z,17.23
2018-12-05T05:41:04.477Z,18.93
2018-12-05T05:43:32.653Z,17.27
2018-12-05T05:46:00.829Z,24.97
2018-12-05T05:48:29.134Z,17.90
2018-12-05T05:50:57.340Z,15.53
2018-12-05T05:53:25.544Z,22.57
2018-12-05T05:55:53.713Z,18.13
2018-12-05T05:58:21.913Z,17.70
2018-12-05T06:00:50.098Z,18.30
2018-12-05T06:03:18.284Z,16.47
2018-12-05T06:05:46.463Z,17.73
2018-12-05T06:08:14.658Z,17.60
2018-12-05T06:10:42.871Z,16.37
2018-12-05T06:13:11.760Z,18.93
2018-12-05T06:15:40.007Z,15.50
2018-12-05T06:18:08.203Z,16.63
2018-12-05T06:20:36.419Z,16.17
2018-12-05T06:23:04.697Z,16.17
2018-12-05T06:25:32.871Z,17.83
2018-12-05T06:28:01.089Z,16.37
2018-12-05T06:30:29.388Z,16.23
2018-12-05T06:32:57.697Z,16.40
2018-12-05T06:35:25.874Z,15.50
2018-12-05T06:37:54.117Z,17.00
2018-12-05T06:40:22.296Z,19.93
2018-12-05T06:42:50.491Z,17.37
2018-12-05T06:45:18.661Z,20.90
2018-12-05T06:47:46.833Z,20.77
2018-12-05T06:50:15.037Z,22.53
2018-12-05T06:52:43.269Z,19.73
2018-12-05T06:55:11.447Z,18.50
2018-12-05T06:57:39.654Z,18.97
2018-12-05T07:00:08.229Z,18.70
2018-12-05T07:02:36.571Z,21.03
2018-12-05T07:05:05.485Z,19.07
2018-12-05T07:07:33.673Z,18.87
2018-12-05T07:10:01.917Z,19.10
2018-12-05T07:12:30.108Z,17.33
2018-12-05T07:14:58.253Z,15.83
2018-12-05T07:17:26.441Z,16.27
2018-12-05T07:19:54.733Z,17.77
2018-12-05T07:22:23.010Z,17.67
2018-12-05T07:24:51.197Z,16.43
2018-12-05T07:27:19.434Z,15.90
2018-12-05T07:29:47.617Z,16.13
2018-12-05T07:32:15.912Z,18.87
2018-12-05T07:34:44.141Z,17.70
2018-12-05T07:37:12.325Z,17.43
2018-12-05T07:39:40.535Z,16.73
2018-12-05T07:42:08.783Z,20.93
2018-12-05T07:44:36.960Z,16.90
2018-12-05T07:47:05.197Z,23.33
2018-12-05T07:49:33.508Z,16.90
2018-12-05T07:52:01.800Z,18.00
2018-12-05T07:54:29.999Z,18.53
2018-12-05T07:56:58.225Z,16.57
2018-12-05T07:59:26.511Z,17.13
2018-12-05T08:01:54.797Z,17.23
2018-12-05T08:04:22.986Z,18.40
2018-12-05T08:06:51.245Z,18.13
2018-12-05T08:09:19.433Z,15.20
2018-12-05T08:11:47.648Z,17.70
2018-12-05T08:14:15.841Z,18.43
2018-12-05T08:16:44.042Z,18.33
2018-12-05T08:19:12.220Z,16.20
2018-12-05T08:21:40.416Z,16.67
2018-12-05T08:24:08.768Z,17.63
2018-12-05T08:26:36.958Z,16.17
2018-12-05T08:29:05.187Z,16.63
2018-12-05T08:31:33.404Z,18.30
2018-12-05T08:34:02.051Z,16.60
2018-12-05T08:36:30.236Z,18.67
2018-12-05T08:38:58.447Z,16.57
2018-12-05T08:41:26.654Z,16.13
2018-12-05T08:43:54.863Z,17.57
2018-12-05T08:46:23.056Z,16.80
2018-12-05T08:48:52.162Z,16.87
2018-12-05T08:51:20.521Z,17.73
2018-12-05T08:53:48.697Z,17.80
2018-12-05T08:56:18.805Z,17.37
2018-12-05T08:58:47.185Z,17.37
2018-12-05T09:01:15.463Z,17.97
2018-12-05T09:03:43.742Z,17.00
2018-12-05T09:06:11.985Z,16.83
2018-12-05T09:08:40.205Z,17.57
2018-12-05T09:11:08.412Z,17.07
2018-12-05T09:13:36.639Z,18.43
2018-12-05T09:16:04.906Z,17.50
2018-12-05T09:18:33.081Z,17.70
2018-12-05T09:21:01.303Z,17.60
2018-12-05T09:23:29.667Z,17.13
2018-12-05T09:25:57.948Z,18.43
2018-12-05T09:28:26.130Z,17.27
2018-12-05T09:30:54.464Z,18.73
2018-12-05T09:33:23.245Z,17.93
2018-12-05T09:35:51.425Z,18.63
2018-12-05T09:38:19.717Z,17.43
2018-12-05T09:40:48.037Z,19.13
2018-12-05T09:43:17.267Z,18.37
2018-12-05T09:45:45.561Z,19.47
2018-12-05T09:48:13.843Z,17.43
2018-12-05T09:50:42.081Z,18.20
2018-12-05T09:53:10.385Z,17.83
2018-12-05T09:55:38.757Z,17.33
2018-12-05T09:58:07.033Z,17.90
2018-12-05T10:00:35.388Z,19.80
2018-12-05T10:03:03.767Z,18.67
2018-12-05T10:05:32.163Z,19.50
2018-12-05T10:08:00.447Z,18.03
2018-12-05T10:10:28.661Z,18.33
2018-12-05T10:12:56.898Z,18.60
2018-12-05T10:15:25.101Z,18.90
2018-12-05T10:17:53.471Z,20.77
2018-12-05T10:20:21.733Z,18.60
2018-12-05T10:22:49.925Z,19.50
2018-12-05T10:25:18.154Z,17.80
2018-12-05T10:27:46.338Z,17.03
2018-12-05T10:30:14.937Z,18.43
2018-12-05T10:32:43.125Z,17.80
2018-12-05T10:35:12.497Z,17.43
2018-12-05T10:37:40.671Z,17.10
2018-12-05T10:40:08.961Z,16.37
2018-12-05T10:42:37.213Z,15.57
2018-12-05T10:45:05.640Z,16.90
2018-12-05T10:47:34.057Z,16.67
2018-12-05T10:50:02.406Z,15.40
2018-12-05T10:52:30.973Z,15.13
2018-12-05T10:54:59.210Z,15.43
2018-12-05T10:57:27.446Z,14.03
2018-12-05T10:59:55.647Z,14.97
2018-12-05T11:02:29.505Z,14.60
2018-12-05T11:08:13.424Z,12.97
2018-12-05T11:10:47.292Z,11.77
2018-12-05T11:13:21.164Z,12.40
2018-12-05T11:15:55.117Z,11.37
2018-12-05T11:18:29.056Z,11.47
2018-12-05T11:21:03.029Z,12.13
2018-12-05T11:23:36.984Z,10.80
2018-12-05T11:26:15.958Z,10.27
2018-12-05T11:28:44.270Z,10.53
2018-12-05T11:31:13.453Z,10.83
2018-12-05T11:33:41.664Z,10.87
2018-12-05T11:36:09.882Z,10.70
2018-12-05T11:38:38.131Z,9.63
2018-12-05T11:41:06.352Z,10.47
2018-12-05T11:43:34.563Z,9.83
2018-12-05T11:46:02.761Z,9.50
2018-12-05T11:48:30.983Z,10.10
2018-12-05T11:50:59.187Z,10.43
2018-12-05T11:53:27.461Z,9.97
2018-12-05T11:55:56.640Z,10.20
2018-12-05T11:58:24.830Z,9.90
2018-12-05T12:00:52.997Z,9.60
2018-12-05T12:03:21.223Z,9.40
2018-12-05T12:05:49.430Z,10.23
2018-12-05T12:08:18.176Z,9.83
2018-12-05T12:10:46.504Z,9.53
2018-12-05T12:13:14.705Z,9.50
2018-12-05T12:15:42.987Z,9.73
2018-12-05T12:18:11.176Z,8.73
2018-12-05T12:20:39.468Z,9.53
2018-12-05T12:23:07.744Z,8.77
2018-12-05T12:25:35.998Z,9.00
2018-12-05T12:28:04.298Z,9.60
2018-12-05T12:30:32.560Z,8.43
2018-12-05T12:33:02.666Z,8.73
2018-12-05T12:35:31.738Z,9.00
2018-12-05T12:37:59.907Z,8.40
2018-12-05T12:40:28.196Z,8.73
2018-12-05T12:42:56.464Z,9.07
2018-12-05T12:45:24.656Z,9.13
2018-12-05T12:47:52.934Z,8.30
2018-12-05T12:50:21.139Z,8.07
2018-12-05T12:52:49.335Z,7.60
2018-12-05T12:55:17.520Z,9.60
2018-12-05T12:57:45.712Z,9.40
2018-12-05T13:00:13.953Z,8.60
2018-12-05T13:02:42.156Z,9.40
2018-12-05T13:05:10.347Z,8.27
2018-12-05T13:07:38.558Z,8.20
2018-12-05T13:10:07.382Z,8.50
2018-12-05T13:12:35.566Z,8.73
2018-12-05T13:15:04.048Z,8.93
2018-12-05T13:17:32.342Z,8.57
2018-12-05T13:20:00.509Z,7.77
2018-12-05T13:22:28.700Z,8.50
2018-12-05T13:24:56.923Z,8.33
2018-12-05T13:27:25.124Z,8.13
2018-12-05T13:29:53.370Z,8.63
2018-12-05T13:32:21.550Z,8.50
2018-12-05T13:34:49.753Z,9.00
2018-12-05T13:37:18.028Z,9.07
2018-12-05T13:39:46.256Z,8.70
2018-12-05T13:42:14.428Z,8.60
2018-12-05T13:44:42.628Z,8.73
2018-12-05T13:47:10.885Z,9.10
2018-12-05T13:49:39.211Z,8.80
2018-12-05T13:52:07.420Z,9.17
2018-12-05T13:54:35.608Z,9.20
2018-12-05T13:57:04.056Z,8.53
2018-12-05T13:59:32.366Z,8.87
2018-12-05T14:02:00.552Z,10.13
2018-12-05T14:04:28.776Z,8.90
2018-12-05T14:06:56.970Z,8.47
2018-12-05T14:09:25.170Z,7.93
2018-12-05T14:11:53.481Z,8.87
2018-12-05T14:14:21.777Z,7.50
2018-12-05T14:16:49.961Z,7.97
2018-12-05T14:19:18.292Z,8.03
2018-12-05T14:21:46.501Z,7.97
2018-12-05T14:24:14.689Z,7.30
2018-12-05T14:26:44.289Z,8.87
2018-12-05T14:29:12.501Z,7.60
2018-12-05T14:31:40.672Z,7.67
2018-12-05T14:34:08.905Z,8.40
2018-12-05T14:36:37.110Z,8.07
2018-12-05T14:39:06.021Z,7.80
2018-12-05T14:41:34.229Z,8.10
2018-12-05T14:44:03.261Z,7.90
2018-12-05T14:46:31.563Z,8.00
2018-12-05T14:48:59.780Z,8.73
2018-12-05T14:51:28.081Z,7.97
2018-12-05T14:53:56.308Z,7.77
2018-12-05T14:56:24.539Z,7.87
2018-12-05T14:58:52.725Z,7.17
2018-12-05T15:01:20.910Z,7.73
2018-12-05T15:03:49.130Z,7.37
2018-12-05T15:06:17.310Z,7.67
2018-12-05T15:08:45.529Z,7.33
2018-12-05T15:11:13.747Z,7.70
2018-12-05T15:13:41.929Z,7.90
2018-12-05T15:16:10.145Z,7.00
2018-12-05T15:18:38.364Z,7.70
2018-12-05T15:21:06.569Z,7.53
2018-12-05T15:23:34.741Z,7.27
2018-12-05T15:26:02.985Z,7.87
2018-12-05T15:28:31.178Z,6.50
2018-12-05T15:30:59.420Z,6.97
2018-12-05T15:33:27.620Z,6.57
2018-12-05T15:35:55.829Z,6.60
2018-12-05T15:38:24.048Z,6.40
2018-12-05T15:40:52.252Z,7.10
2018-12-05T15:43:20.468Z,6.53
2018-12-05T15:45:48.897Z,7.17
2018-12-05T15:48:17.121Z,7.30
2018-12-05T15:50:45.305Z,6.80
2018-12-05T15:53:13.521Z,6.80
2018-12-05T15:55:41.981Z,6.33
2018-12-05T15:58:10.201Z,6.60
2018-12-05T16:00:38.374Z,6.33
2018-12-05T16:03:06.636Z,7.60
2018-12-05T16:05:34.860Z,6.23
2018-12-05T16:08:03.133Z,5.93
2018-12-05T16:10:31.349Z,6.20
2018-12-05T16:12:59.572Z,6.33
2018-12-05T16:15:27.772Z,6.73
2018-12-05T16:17:55.978Z,6.60
2018-12-05T16:20:24.151Z,6.67
2018-12-05T16:22:52.346Z,6.40
2018-12-05T16:25:20.587Z,7.10
2018-12-05T16:27:48.793Z,7.57
2018-12-05T16:30:17.049Z,6.17
2018-12-05T16:32:45.233Z,6.27
2018-12-05T16:35:13.425Z,6.97
2018-12-05T16:37:41.688Z,7.17
2018-12-05T16:40:09.986Z,6.23
2018-12-05T16:42:38.208Z,7.60
2018-12-05T16:45:07.165Z,9.93
2018-12-05T16:47:35.361Z,6.87
2018-12-05T16:50:05.008Z,7.07
2018-12-05T16:52:33.199Z,8.10
2018-12-05T16:55:01.418Z,8.30
2018-12-05T16:57:29.945Z,8.37
2018-12-05T16:59:58.340Z,9.13
2018-12-05T17:02:26.536Z,8.47
2018-12-05T17:04:54.721Z,9.90
2018-12-05T17:07:22.914Z,10.30
2018-12-05T17:09:51.223Z,10.00
2018-12-05T17:12:19.476Z,10.43
2018-12-05T17:14:47.664Z,10.80
2018-12-05T17:17:15.887Z,9.40
2018-12-05T17:19:44.095Z,10.47
2018-12-05T17:22:12.404Z,12.73
2018-12-05T17:24:40.613Z,10.90
2018-12-05T17:27:08.871Z,10.00
2018-12-05T17:29:37.095Z,12.67
2018-12-05T17:32:05.380Z,9.53
2018-12-05T17:34:33.565Z,13.70
2018-12-05T17:37:01.770Z,9.83
2018-12-05T17:39:29.980Z,10.27
2018-12-05T17:41:58.183Z,13.37
2018-12-05T17:44:26.363Z,11.57
2018-12-05T17:46:54.557Z,13.53
2018-12-05T17:49:22.816Z,13.97
2018-12-05T17:51:51.017Z,11.10
2018-12-05T17:54:19.263Z,14.03
2018-12-05T17:56:47.525Z,12.37
2018-12-05T17:59:15.749Z,11.83
2018-12-05T18:01:44.424Z,11.67
2018-12-05T18:04:12.721Z,10.43
2018-12-05T18:06:41.073Z,13.10
2018-12-05T18:09:09.247Z,14.67
2018-12-05T18:11:37.453Z,11.27
2018-12-05T18:14:05.709Z,9.27
2018-12-05T18:16:33.957Z,12.93
2018-12-05T18:19:02.221Z,11.50
2018-12-05T18:21:30.429Z,10.33
2018-12-05T18:23:58.634Z,12.50
2018-12-05T18:26:26.865Z,11.20
2018-12-05T18:28:55.203Z,14.83
2018-12-05T18:31:23.490Z,10.57
2018-12-05T18:33:51.665Z,12.90
2018-12-05T18:36:19.873Z,12.03
2018-12-05T18:38:48.094Z,17.60
2018-12-05T18:41:16.406Z,12.77
2018-12-05T18:43:44.629Z,12.10
2018-12-05T18:46:12.853Z,16.27
2018-12-05T18:48:41.090Z,10.07
2018-12-05T18:51:09.307Z,11.33
2018-12-05T18:53:37.521Z,11.73
2018-12-05T18:56:05.723Z,8.30
2018-12-05T18:58:33.908Z,7.30
2018-12-05T19:01:02.164Z,10.57
2018-12-05T19:03:31.456Z,12.53
2018-12-05T19:05:59.662Z,9.43
2018-12-05T19:08:34.177Z,12.53
2018-12-05T19:10:58.180Z,12.43
2018-12-05T19:13:26.434Z,12.00
2018-12-05T19:15:54.695Z,13.23
2018-12-05T19:18:23.620Z,8.70
2018-12-05T19:20:52.194Z,10.17
2018-12-05T19:23:20.386Z,10.20
2018-12-05T19:25:48.570Z,10.50
2018-12-05T19:28:16.928Z,11.60
2018-12-05T19:30:45.196Z,9.60
2018-12-05T19:33:13.474Z,13.97
2018-12-05T19:35:41.666Z,12.83
2018-12-05T19:38:09.924Z,14.30
2018-12-05T19:40:39.088Z,10.27
2018-12-05T19:43:07.383Z,11.03
2018-12-05T19:45:35.681Z,9.97
2018-12-05T19:48:04.690Z,8.73
2018-12-05T19:50:32.936Z,11.43
2018-12-05T19:53:01.819Z,8.80
2018-12-05T19:55:30.000Z,10.40
2018-12-05T19:57:58.216Z,10.40
2018-12-05T20:00:26.988Z,13.93
2018-12-05T20:02:55.198Z,9.67
2018-12-05T20:05:23.388Z,9.47
2018-12-05T20:07:51.693Z,8.47
2018-12-05T20:10:19.954Z,10.63
2018-12-05T20:12:48.151Z,10.57
2018-12-05T20:15:16.346Z,10.43
2018-12-05T20:17:44.578Z,9.50
2018-12-05T20:20:13.892Z,9.40
2018-12-05T20:22:42.160Z,10.77
2018-12-05T20:25:10.341Z,10.97
2018-12-05T20:27:38.549Z,9.97
2018-12-05T20:30:07.464Z,10.90
2018-12-05T20:32:35.757Z,12.80
2018-12-05T20:35:04.266Z,13.10
2018-12-05T20:37:32.609Z,9.87
2018-12-05T20:40:00.808Z,12.07
2018-12-05T20:42:28.999Z,12.27
2018-12-05T20:44:57.208Z,12.77
2018-12-05T20:47:25.432Z,14.53
2018-12-05T20:49:53.724Z,9.23
2018-12-05T20:52:22.395Z,11.27
2018-12-05T20:54:50.638Z,7.13
2018-12-05T20:57:18.803Z,8.07
2018-12-05T20:59:47.082Z,8.97
2018-12-05T21:02:15.272Z,8.63
2018-12-05T21:04:43.450Z,11.03
2018-12-05T21:07:11.840Z,7.33
2018-12-05T21:09:40.036Z,6.73
2018-12-05T21:12:08.333Z,8.00
2018-12-05T21:14:36.578Z,8.33
2018-12-05T21:17:04.863Z,9.43
2018-12-05T21:19:33.135Z,7.70
2018-12-05T21:22:01.316Z,7.30
2018-12-05T21:24:29.572Z,8.10
2018-12-05T21:26:57.754Z,9.20
2018-12-05T21:29:25.946Z,7.67
2018-12-05T21:31:54.152Z,8.07
2018-12-05T21:34:22.342Z,9.33
2018-12-05T21:36:50.530Z,7.27
2018-12-05T21:39:18.742Z,7.73
2018-12-05T21:41:47.440Z,6.70
2018-12-05T21:44:15.644Z,6.53
2018-12-05T21:46:44.889Z,7.57
2018-12-05T21:49:13.244Z,8.23
2018-12-05T21:51:41.434Z,7.23
2018-12-05T21:54:09.712Z,7.03
2018-12-05T21:56:37.908Z,8.10
2018-12-05T21:59:06.138Z,8.40
2018-12-05T22:01:34.340Z,7.13
2018-12-05T22:04:02.515Z,7.07
2018-12-05T22:06:30.700Z,7.73
2018-12-05T22:08:59.050Z,9.50
2018-12-05T22:11:27.230Z,7.30
2018-12-05T22:13:55.401Z,6.50
2018-12-05T22:16:23.600Z,6.30
2018-12-05T22:18:51.769Z,8.13
2018-12-05T22:21:20.020Z,7.07
2018-12-05T22:23:48.227Z,8.20
2018-12-05T22:26:16.436Z,6.50
2018-12-05T22:28:44.659Z,8.77
2018-12-05T22:31:12.869Z,7.23
2018-12-05T22:33:41.075Z,12.47
2018-12-05T22:36:09.258Z,9.43
2018-12-05T22:38:37.496Z,7.60
2018-12-05T22:41:05.695Z,8.60
2018-12-05T22:43:33.898Z,9.40
2018-12-05T22:46:02.117Z,9.97
2018-12-05T22:48:30.308Z,8.33
2018-12-05T22:50:58.494Z,8.67
2018-12-05T22:53:26.685Z,9.80
2018-12-05T22:55:54.972Z,10.17
2018-12-05T22:58:23.179Z,10.40
2018-12-05T23:00:53.123Z,7.87
2018-12-05T23:03:21.404Z,9.70
2018-12-05T23:05:49.716Z,10.33
2018-12-05T23:08:17.966Z,10.50
2018-12-05T23:10:46.155Z,9.73
2018-12-05T23:13:14.436Z,8.67
2018-12-05T23:15:42.605Z,10.47
2018-12-05T23:18:10.812Z,7.83
2018-12-05T23:20:39.016Z,8.30
2018-12-05T23:23:07.276Z,8.23
2018-12-05T23:25:35.547Z,7.97
2018-12-05T23:28:03.736Z,8.67
2018-12-05T23:30:31.962Z,10.10
2018-12-05T23:33:00.212Z,8.67
2018-12-05T23:35:28.414Z,10.90
2018-12-05T23:37:56.702Z,10.20
2018-12-05T23:40:24.886Z,11.90
2018-12-05T23:42:53.248Z,11.80
2018-12-05T23:45:21.594Z,9.53
2018-12-05T23:47:49.784Z,14.27
2018-12-05T23:50:18.180Z,13.33
2018-12-05T23:52:46.424Z,12.17
2018-12-05T23:55:14.615Z,11.00
2018-12-05T23:57:42.786Z,11.30
